To NAV CANADA Home Page Login to a new session Search on AWWS site Feedback and Comments Disclaimer Vers la page française équivalente Tips FAQ What's new on the site To the Forecasts and Observations / NOTAM section To "File a Flight Plan" website Publications and other links Update of the User's profile FIC Telephone Numbers My Weather Data Folder Route Weather Data Regional Weather Data Local Weather Data To the Forecasts and Observations / NOTAM section
Request Generated 06/26/2017 at 22:22:41 UTC . Weather information available at that time is displayed.

METAR/TAF

MONTREAL INTL (MIRABEL)/QC    

METAR CYMX 262200Z VRB04KT 45SM FEW065 FEW160 FEW260 21/08 A2992 RMK
CU1CC1CI1 CC TR CI TR SLP134 DENSITY ALT 1000FT=
METAR CYMX 262100Z 25007KT 220V300 45SM FEW065 FEW160 FEW260 21/06
A2992 RMK CU1CI1CI1 CI TR CI TR SLP135 DENSITY ALT 1100FT=
METAR CYMX 262000Z 27008KT 200V290 45SM FEW063 FEW160 21/06 A2993 RMK
CU2ACC1 ACC TR TCU TOPS S SLP138 DENSITY ALT 1100FT=

TAF CYMX 261741Z 2618/2718 30005KT P6SM FEW025
BECMG 2621/2623 24005KT
FM270000 VRB03KT P6SM SCT040 BKN080 TEMPO 2700/2707 4SM SHRA BR
SCT012 BKN040 OVC080
FM270700 24008KT 3SM BR SCT006 BKN010
FM271500 23007KT P6SM SCT030 SCT080
RMK NXT FCST BY 270000Z=
Your time UTC time
Weather data provided by Environment Canada and NAV CANADA